KIRS

Kirsch Municipal Airport

Sturgis, Michigan, USA
METAR KIRS 230255Z AUTO 00000KT 10SM BKN015 14/12 A3007 RMK AO2 T01390122
Observed Flight Rules
May-23 @ 02:55 UTC (20 minutes ago) Marginal Visual Flight Rules
Visibility Clouds
10 miles
  • Broken at 1,500' AGL
Temperatures Readings
Current 14°C / 57°F
Dewpoint 12°C / 54°F
Humidity 88%
Altimeter 30.07" Hg
Pressure 1018 hPa
Elevation 282
METAR KIRS 230255Z AUTO 00000KT 10SM BKN015 14/12 A3007 RMK AO2 T01390122
Observed Flight Rules
May-23 @ 02:55 UTC
(20 minutes ago)
MVFR
Clouds
  • Broken at 1,500' AGL
Temperature Dewpoint
14°C / 57°F 12°C / 54°F
Humidity Altimeter Pressure
88% 30.07" Hg 1018 hPa